sensor_id;sensor_type;location;lat;lon;timestamp;pressure;altitude;pressure_sealevel;temperature;humidity
63090;BME280;49174;43.198;27.824;2023-05-25T00:00:27;101462.66;;;12.93;100.00
63090;BME280;49174;43.198;27.824;2023-05-25T00:02:54;101467.81;;;12.88;100.00
63090;BME280;49174;43.198;27.824;2023-05-25T00:05:20;101460.34;;;12.90;100.00
63090;BME280;49174;43.198;27.824;2023-05-25T00:07:46;101452.81;;;12.85;100.00
63090;BME280;49174;43.198;27.824;2023-05-25T00:10:11;101459.44;;;12.83;100.00
63090;BME280;49174;43.198;27.824;2023-05-25T00:12:37;101448.78;;;12.81;100.00
63090;BME280;49174;43.198;27.824;2023-05-25T00:15:04;101452.72;;;12.79;100.00
63090;BME280;49174;43.198;27.824;2023-05-25T00:17:30;101450.66;;;12.81;100.00
63090;BME280;49174;43.198;27.824;2023-05-25T00:19:57;101462.31;;;12.81;100.00
63090;BME280;49174;43.198;27.824;2023-05-25T00:22:26;101456.47;;;12.78;100.00
63090;BME280;49174;43.198;27.824;2023-05-25T00:24:53;101455.00;;;12.75;100.00
63090;BME280;49174;43.198;27.824;2023-05-25T00:27:18;101452.28;;;12.75;100.00
63090;BME280;49174;43.198;27.824;2023-05-25T00:29:44;101453.97;;;12.76;100.00
63090;BME280;49174;43.198;27.824;2023-05-25T00:32:09;101451.72;;;12.80;100.00
63090;BME280;49174;43.198;27.824;2023-05-25T00:34:35;101448.16;;;12.79;100.00
63090;BME280;49174;43.198;27.824;2023-05-25T00:37:01;101452.53;;;12.80;100.00
63090;BME280;49174;43.198;27.824;2023-05-25T00:39:27;101456.28;;;12.79;100.00
63090;BME280;49174;43.198;27.824;2023-05-25T00:41:53;101454.59;;;12.78;100.00
63090;BME280;49174;43.198;27.824;2023-05-25T00:44:19;101459.44;;;12.83;100.00
63090;BME280;49174;43.198;27.824;2023-05-25T00:46:50;101460.66;;;12.80;100.00
63090;BME280;49174;43.198;27.824;2023-05-25T00:49:17;101454.34;;;12.73;100.00
63090;BME280;49174;43.198;27.824;2023-05-25T00:51:44;101451.41;;;12.68;100.00
63090;BME280;49174;43.198;27.824;2023-05-25T00:54:14;101455.13;;;12.67;100.00
63090;BME280;49174;43.198;27.824;2023-05-25T00:56:43;101452.63;;;12.65;100.00
63090;BME280;49174;43.198;27.824;2023-05-25T00:59:14;101445.97;;;12.68;100.00
63090;BME280;49174;43.198;27.824;2023-05-25T01:01:43;101457.44;;;12.70;100.00
63090;BME280;49174;43.198;27.824;2023-05-25T01:04:12;101449.31;;;12.70;100.00
63090;BME280;49174;43.198;27.824;2023-05-25T01:06:43;101449.97;;;12.72;100.00
63090;BME280;49174;43.198;27.824;2023-05-25T01:09:15;101448.91;;;12.73;100.00
63090;BME280;49174;43.198;27.824;2023-05-25T01:11:43;101449.13;;;12.71;100.00
63090;BME280;49174;43.198;27.824;2023-05-25T01:14:09;101449.78;;;12.73;100.00
63090;BME280;49174;43.198;27.824;2023-05-25T01:16:35;101453.31;;;12.74;100.00
63090;BME280;49174;43.198;27.824;2023-05-25T01:19:02;101453.97;;;12.76;100.00
63090;BME280;49174;43.198;27.824;2023-05-25T01:21:36;101451.84;;;12.71;100.00
63090;BME280;49174;43.198;27.824;2023-05-25T01:24:18;101456.69;;;12.76;100.00
63090;BME280;49174;43.198;27.824;2023-05-25T01:27:08;101457.03;;;12.73;100.00
63090;BME280;49174;43.198;27.824;2023-05-25T01:29:36;101451.84;;;12.71;100.00
63090;BME280;49174;43.198;27.824;2023-05-25T01:32:05;101448.69;;;12.68;100.00
63090;BME280;49174;43.198;27.824;2023-05-25T01:34:31;101450.16;;;12.70;100.00
63090;BME280;49174;43.198;27.824;2023-05-25T01:36:56;101442.22;;;12.69;100.00
63090;BME280;49174;43.198;27.824;2023-05-25T01:39:22;101447.66;;;12.69;100.00
63090;BME280;49174;43.198;27.824;2023-05-25T01:41:48;101440.19;;;12.71;100.00
63090;BME280;49174;43.198;27.824;2023-05-25T01:44:14;101439.56;;;12.75;100.00
63090;BME280;49174;43.198;27.824;2023-05-25T01:46:40;101441.44;;;12.75;100.00
63090;BME280;49174;43.198;27.824;2023-05-25T01:49:14;101441.41;;;12.68;100.00
63090;BME280;49174;43.198;27.824;2023-05-25T01:51:50;101439.38;;;12.56;100.00
63090;BME280;49174;43.198;27.824;2023-05-25T01:54:20;101442.03;;;12.49;100.00
63090;BME280;49174;43.198;27.824;2023-05-25T01:56:48;101432.44;;;12.46;100.00
63090;BME280;49174;43.198;27.824;2023-05-25T01:59:19;101441.19;;;12.48;100.00
63090;BME280;49174;43.198;27.824;2023-05-25T02:01:45;101447.91;;;12.52;100.00
63090;BME280;49174;43.198;27.824;2023-05-25T02:04:11;101444.31;;;12.45;100.00
63090;BME280;49174;43.198;27.824;2023-05-25T02:06:37;101439.63;;;12.39;100.00
63090;BME280;49174;43.198;27.824;2023-05-25T02:09:04;101439.25;;;12.42;100.00
63090;BME280;49174;43.198;27.824;2023-05-25T02:11:29;101454.47;;;12.43;100.00
63090;BME280;49174;43.198;27.824;2023-05-25T02:13:55;101451.88;;;12.35;100.00
63090;BME280;49174;43.198;27.824;2023-05-25T02:16:20;101460.00;;;12.35;100.00
63090;BME280;49174;43.198;27.824;2023-05-25T02:18:46;101456.84;;;12.32;100.00
63090;BME280;49174;43.198;27.824;2023-05-25T02:21:11;101453.59;;;12.21;100.00
63090;BME280;49174;43.198;27.824;2023-05-25T02:23:37;101465.34;;;12.14;100.00
63090;BME280;49174;43.198;27.824;2023-05-25T02:26:03;101460.31;;;12.11;100.00
63090;BME280;49174;43.198;27.824;2023-05-25T02:28:28;101463.41;;;12.07;100.00
63090;BME280;49174;43.198;27.824;2023-05-25T02:30:54;101464.69;;;12.12;100.00
63090;BME280;49174;43.198;27.824;2023-05-25T02:33:19;101469.47;;;12.10;100.00
63090;BME280;49174;43.198;27.824;2023-05-25T02:35:45;101466.56;;;12.11;100.00
63090;BME280;49174;43.198;27.824;2023-05-25T02:38:11;101473.84;;;12.11;100.00
63090;BME280;49174;43.198;27.824;2023-05-25T02:40:36;101479.34;;;12.17;100.00
63090;BME280;49174;43.198;27.824;2023-05-25T02:43:03;101478.44;;;12.10;100.00
63090;BME280;49174;43.198;27.824;2023-05-25T02:45:29;101475.28;;;12.06;100.00
63090;BME280;49174;43.198;27.824;2023-05-25T02:47:54;101476.28;;;12.05;100.00
63090;BME280;49174;43.198;27.824;2023-05-25T02:50:20;101481.91;;;12.04;100.00
63090;BME280;49174;43.198;27.824;2023-05-25T02:52:46;101484.31;;;11.99;100.00
63090;BME280;49174;43.198;27.824;2023-05-25T02:55:11;101477.53;;;11.88;100.00
63090;BME280;49174;43.198;27.824;2023-05-25T02:57:39;101485.81;;;11.87;100.00
63090;BME280;49174;43.198;27.824;2023-05-25T03:00:05;101489.38;;;11.87;100.00
63090;BME280;49174;43.198;27.824;2023-05-25T03:02:32;101485.47;;;11.90;100.00
63090;BME280;49174;43.198;27.824;2023-05-25T03:04:57;101485.72;;;11.95;100.00
63090;BME280;49174;43.198;27.824;2023-05-25T03:07:24;101488.53;;;12.01;100.00
63090;BME280;49174;43.198;27.824;2023-05-25T03:09:53;101497.75;;;12.07;100.00
63090;BME280;49174;43.198;27.824;2023-05-25T03:12:19;101498.03;;;12.12;100.00
63090;BME280;49174;43.198;27.824;2023-05-25T03:14:44;101504.94;;;12.15;100.00
63090;BME280;49174;43.198;27.824;2023-05-25T03:17:10;101504.44;;;12.11;100.00
63090;BME280;49174;43.198;27.824;2023-05-25T03:19:35;101505.28;;;12.12;100.00
63090;BME280;49174;43.198;27.824;2023-05-25T03:22:02;101507.34;;;12.10;100.00
63090;BME280;49174;43.198;27.824;2023-05-25T03:24:28;101500.53;;;12.14;100.00
63090;BME280;49174;43.198;27.824;2023-05-25T03:26:53;101504.16;;;12.21;100.00
63090;BME280;49174;43.198;27.824;2023-05-25T03:29:19;101505.00;;;12.21;100.00
63090;BME280;49174;43.198;27.824;2023-05-25T03:31:45;101490.81;;;12.19;100.00
63090;BME280;49174;43.198;27.824;2023-05-25T03:34:11;101488.75;;;12.21;100.00
63090;BME280;49174;43.198;27.824;2023-05-25T03:36:36;101500.03;;;12.25;100.00
63090;BME280;49174;43.198;27.824;2023-05-25T03:39:06;101508.22;;;12.46;100.00
63090;BME280;49174;43.198;27.824;2023-05-25T03:41:34;101500.16;;;12.53;100.00
63090;BME280;49174;43.198;27.824;2023-05-25T03:43:59;101500.81;;;12.55;100.00
63090;BME280;49174;43.198;27.824;2023-05-25T03:46:25;101498.81;;;12.64;100.00
63090;BME280;49174;43.198;27.824;2023-05-25T03:48:50;101495.59;;;12.75;100.00
63090;BME280;49174;43.198;27.824;2023-05-25T03:51:16;101503.16;;;12.80;100.00
63090;BME280;49174;43.198;27.824;2023-05-25T03:53:41;101505.53;;;12.89;100.00
63090;BME280;49174;43.198;27.824;2023-05-25T03:56:07;101504.78;;;12.95;100.00
63090;BME280;49174;43.198;27.824;2023-05-25T03:58:32;101503.78;;;13.03;100.00
63090;BME280;49174;43.198;27.824;2023-05-25T04:00:58;101509.06;;;13.11;100.00
63090;BME280;49174;43.198;27.824;2023-05-25T04:03:24;101515.19;;;13.20;100.00
63090;BME280;49174;43.198;27.824;2023-05-25T04:05:50;101509.28;;;13.31;100.00
63090;BME280;49174;43.198;27.824;2023-05-25T04:08:16;101509.34;;;13.38;100.00
63090;BME280;49174;43.198;27.824;2023-05-25T04:10:45;101510.84;;;13.47;100.00
63090;BME280;49174;43.198;27.824;2023-05-25T04:13:10;101510.91;;;13.54;100.00
63090;BME280;49174;43.198;27.824;2023-05-25T04:15:36;101514.50;;;13.61;100.00
63090;BME280;49174;43.198;27.824;2023-05-25T04:18:02;101514.34;;;13.69;100.00
63090;BME280;49174;43.198;27.824;2023-05-25T04:20:28;101516.50;;;13.80;100.00
63090;BME280;49174;43.198;27.824;2023-05-25T04:22:54;101517.25;;;13.96;100.00
63090;BME280;49174;43.198;27.824;2023-05-25T04:25:19;101519.16;;;14.02;100.00
63090;BME280;49174;43.198;27.824;2023-05-25T04:27:45;101515.81;;;14.06;100.00
63090;BME280;49174;43.198;27.824;2023-05-25T04:30:11;101522.94;;;14.14;100.00
63090;BME280;49174;43.198;27.824;2023-05-25T04:32:38;101522.53;;;14.17;100.00
63090;BME280;49174;43.198;27.824;2023-05-25T04:35:03;101527.41;;;14.28;100.00
63090;BME280;49174;43.198;27.824;2023-05-25T04:37:31;101525.56;;;14.36;100.00
63090;BME280;49174;43.198;27.824;2023-05-25T04:39:57;101528.91;;;14.38;100.00
63090;BME280;49174;43.198;27.824;2023-05-25T04:42:22;101525.16;;;14.39;100.00
63090;BME280;49174;43.198;27.824;2023-05-25T04:44:49;101531.66;;;14.44;100.00
63090;BME280;49174;43.198;27.824;2023-05-25T04:47:18;101538.19;;;14.57;100.00
63090;BME280;49174;43.198;27.824;2023-05-25T04:49:43;101534.28;;;14.66;100.00
63090;BME280;49174;43.198;27.824;2023-05-25T04:52:09;101537.63;;;14.74;100.00
63090;BME280;49174;43.198;27.824;2023-05-25T04:54:35;101542.25;;;14.81;100.00
63090;BME280;49174;43.198;27.824;2023-05-25T04:57:01;101542.47;;;14.92;100.00
63090;BME280;49174;43.198;27.824;2023-05-25T04:59:27;101544.75;;;14.89;100.00
63090;BME280;49174;43.198;27.824;2023-05-25T05:01:53;101548.72;;;14.93;100.00
63090;BME280;49174;43.198;27.824;2023-05-25T05:04:18;101546.00;;;14.93;100.00
63090;BME280;49174;43.198;27.824;2023-05-25T05:06:43;101549.59;;;15.00;100.00
63090;BME280;49174;43.198;27.824;2023-05-25T05:09:09;101544.59;;;15.10;100.00
63090;BME280;49174;43.198;27.824;2023-05-25T05:11:35;101543.97;;;15.22;100.00
63090;BME280;49174;43.198;27.824;2023-05-25T05:14:00;101542.72;;;15.31;100.00
63090;BME280;49174;43.198;27.824;2023-05-25T05:16:26;101546.72;;;15.41;100.00
63090;BME280;49174;43.198;27.824;2023-05-25T05:18:51;101549.00;;;15.51;100.00
63090;BME280;49174;43.198;27.824;2023-05-25T05:21:17;101542.09;;;15.62;100.00
63090;BME280;49174;43.198;27.824;2023-05-25T05:23:42;101532.47;;;15.73;100.00
63090;BME280;49174;43.198;27.824;2023-05-25T05:26:08;101540.00;;;15.77;100.00
63090;BME280;49174;43.198;27.824;2023-05-25T05:28:36;101537.91;;;15.86;100.00
63090;BME280;49174;43.198;27.824;2023-05-25T05:31:01;101551.25;;;16.01;100.00
63090;BME280;49174;43.198;27.824;2023-05-25T05:33:28;101552.69;;;16.17;100.00
63090;BME280;49174;43.198;27.824;2023-05-25T05:35:53;101548.88;;;16.31;100.00
63090;BME280;49174;43.198;27.824;2023-05-25T05:38:19;101555.09;;;16.45;100.00
63090;BME280;49174;43.198;27.824;2023-05-25T05:40:45;101557.97;;;16.63;100.00
63090;BME280;49174;43.198;27.824;2023-05-25T05:43:12;101557.44;;;16.86;100.00
63090;BME280;49174;43.198;27.824;2023-05-25T05:45:38;101560.69;;;17.02;100.00
63090;BME280;49174;43.198;27.824;2023-05-25T05:48:05;101559.94;;;17.19;100.00
63090;BME280;49174;43.198;27.824;2023-05-25T05:50:37;101563.88;;;17.30;100.00
63090;BME280;49174;43.198;27.824;2023-05-25T05:53:04;101567.16;;;17.39;100.00
63090;BME280;49174;43.198;27.824;2023-05-25T05:55:30;101560.56;;;17.47;99.68
63090;BME280;49174;43.198;27.824;2023-05-25T05:57:56;101565.47;;;17.63;99.62
63090;BME280;49174;43.198;27.824;2023-05-25T06:00:21;101564.47;;;17.82;98.53
63090;BME280;49174;43.198;27.824;2023-05-25T06:02:47;101567.00;;;18.02;97.31
63090;BME280;49174;43.198;27.824;2023-05-25T06:05:13;101563.00;;;18.23;95.14
63090;BME280;49174;43.198;27.824;2023-05-25T06:07:38;101559.66;;;18.40;93.20
63090;BME280;49174;43.198;27.824;2023-05-25T06:10:04;101566.31;;;18.62;94.04
63090;BME280;49174;43.198;27.824;2023-05-25T06:12:30;101558.69;;;18.83;89.92
63090;BME280;49174;43.198;27.824;2023-05-25T06:14:55;101570.38;;;18.90;86.53
63090;BME280;49174;43.198;27.824;2023-05-25T06:17:22;101568.00;;;18.93;86.43
63090;BME280;49174;43.198;27.824;2023-05-25T06:19:48;101569.44;;;18.96;85.07
63090;BME280;49174;43.198;27.824;2023-05-25T06:22:15;101559.75;;;19.12;85.55
63090;BME280;49174;43.198;27.824;2023-05-25T06:24:41;101565.25;;;19.35;84.78
63090;BME280;49174;43.198;27.824;2023-05-25T06:27:06;101564.22;;;19.60;83.58
63090;BME280;49174;43.198;27.824;2023-05-25T06:29:32;101572.59;;;19.89;81.58
63090;BME280;49174;43.198;27.824;2023-05-25T06:31:57;101563.03;;;20.15;79.54
63090;BME280;49174;43.198;27.824;2023-05-25T06:34:23;101559.66;;;20.36;75.87
63090;BME280;49174;43.198;27.824;2023-05-25T06:36:49;101556.28;;;20.58;78.60
63090;BME280;49174;43.198;27.824;2023-05-25T06:39:15;101556.88;;;20.88;78.26
63090;BME280;49174;43.198;27.824;2023-05-25T06:41:40;101559.50;;;21.12;73.37
63090;BME280;49174;43.198;27.824;2023-05-25T06:44:06;101561.19;;;21.30;74.49
63090;BME280;49174;43.198;27.824;2023-05-25T06:46:32;101557.53;;;21.58;74.28
63090;BME280;49174;43.198;27.824;2023-05-25T06:49:01;101564.34;;;21.72;69.71
63090;BME280;49174;43.198;27.824;2023-05-25T06:51:28;101564.09;;;21.91;69.57
63090;BME280;49174;43.198;27.824;2023-05-25T06:53:54;101562.31;;;22.01;69.02
63090;BME280;49174;43.198;27.824;2023-05-25T06:56:20;101560.19;;;22.25;68.78
63090;BME280;49174;43.198;27.824;2023-05-25T06:58:47;101562.31;;;22.62;70.16
63090;BME280;49174;43.198;27.824;2023-05-25T07:01:13;101563.56;;;23.04;68.28
63090;BME280;49174;43.198;27.824;2023-05-25T07:03:39;101560.31;;;23.39;63.85
63090;BME280;49174;43.198;27.824;2023-05-25T07:06:05;101557.66;;;23.49;62.51
63090;BME280;49174;43.198;27.824;2023-05-25T07:08:31;101566.25;;;23.58;60.28
63090;BME280;49174;43.198;27.824;2023-05-25T07:10:56;101567.53;;;23.77;61.68
63090;BME280;49174;43.198;27.824;2023-05-25T07:13:22;101568.78;;;24.07;61.89
63090;BME280;49174;43.198;27.824;2023-05-25T07:15:47;101557.03;;;24.22;60.19
63090;BME280;49174;43.198;27.824;2023-05-25T07:18:13;101550.75;;;24.42;59.13
63090;BME280;49174;43.198;27.824;2023-05-25T07:20:39;101552.53;;;24.05;63.49
63090;BME280;49174;43.198;27.824;2023-05-25T07:23:11;101554.63;;;24.41;58.50
63090;BME280;49174;43.198;27.824;2023-05-25T07:25:37;101559.97;;;24.58;60.21
63090;BME280;49174;43.198;27.824;2023-05-25T07:28:03;101555.63;;;24.92;58.59
63090;BME280;49174;43.198;27.824;2023-05-25T07:30:29;101559.50;;;24.96;54.92
63090;BME280;49174;43.198;27.824;2023-05-25T07:32:54;101553.69;;;24.88;55.61
63090;BME280;49174;43.198;27.824;2023-05-25T07:35:21;101556.22;;;25.20;57.08
63090;BME280;49174;43.198;27.824;2023-05-25T07:37:57;101545.44;;;25.75;55.08
63090;BME280;49174;43.198;27.824;2023-05-25T07:40:23;101538.25;;;25.43;54.42
63090;BME280;49174;43.198;27.824;2023-05-25T07:42:49;101547.38;;;25.74;54.40
63090;BME280;49174;43.198;27.824;2023-05-25T07:45:15;101547.69;;;25.52;53.87
63090;BME280;49174;43.198;27.824;2023-05-25T07:47:40;101546.78;;;25.93;53.84
63090;BME280;49174;43.198;27.824;2023-05-25T07:50:06;101549.41;;;26.39;51.08
63090;BME280;49174;43.198;27.824;2023-05-25T07:52:32;101550.72;;;26.57;49.54
63090;BME280;49174;43.198;27.824;2023-05-25T07:54:57;101545.94;;;26.72;50.08
63090;BME280;49174;43.198;27.824;2023-05-25T07:57:23;101545.81;;;26.88;50.95
63090;BME280;49174;43.198;27.824;2023-05-25T07:59:49;101535.75;;;26.58;50.48
63090;BME280;49174;43.198;27.824;2023-05-25T08:02:15;101536.41;;;26.89;50.51
63090;BME280;49174;43.198;27.824;2023-05-25T08:04:40;101545.75;;;26.98;50.77
63090;BME280;49174;43.198;27.824;2023-05-25T08:07:06;101545.81;;;26.33;51.23
63090;BME280;49174;43.198;27.824;2023-05-25T08:09:31;101545.66;;;26.04;52.86
63090;BME280;49174;43.198;27.824;2023-05-25T08:11:57;101555.38;;;25.71;53.45
63090;BME280;49174;43.198;27.824;2023-05-25T08:14:24;101568.94;;;25.21;61.02
63090;BME280;49174;43.198;27.824;2023-05-25T08:16:50;101557.53;;;24.87;66.97
63090;BME280;49174;43.198;27.824;2023-05-25T08:19:16;101554.69;;;23.61;71.18
63090;BME280;49174;43.198;27.824;2023-05-25T08:21:41;101547.69;;;23.11;76.99
63090;BME280;49174;43.198;27.824;2023-05-25T08:24:07;101545.44;;;22.32;81.19
63090;BME280;49174;43.198;27.824;2023-05-25T08:26:33;101543.63;;;22.03;83.51
63090;BME280;49174;43.198;27.824;2023-05-25T08:29:04;101539.81;;;22.21;91.52
63090;BME280;49174;43.198;27.824;2023-05-25T08:31:33;101545.09;;;22.50;93.13
63090;BME280;49174;43.198;27.824;2023-05-25T08:33:59;101555.84;;;22.79;93.92
63090;BME280;49174;43.198;27.824;2023-05-25T08:36:26;101552.78;;;22.97;93.68
63090;BME280;49174;43.198;27.824;2023-05-25T08:38:52;101564.97;;;23.06;92.75
63090;BME280;49174;43.198;27.824;2023-05-25T08:41:18;101564.09;;;23.01;89.94
63090;BME280;49174;43.198;27.824;2023-05-25T08:43:44;101558.72;;;22.89;88.08
63090;BME280;49174;43.198;27.824;2023-05-25T08:46:10;101563.63;;;22.82;87.75
63090;BME280;49174;43.198;27.824;2023-05-25T08:48:37;101563.94;;;22.63;85.81
63090;BME280;49174;43.198;27.824;2023-05-25T08:51:07;101562.81;;;22.37;84.50
63090;BME280;49174;43.198;27.824;2023-05-25T08:53:38;101555.25;;;22.27;85.77
63090;BME280;49174;43.198;27.824;2023-05-25T08:56:18;101549.59;;;22.17;88.80
63090;BME280;49174;43.198;27.824;2023-05-25T08:58:48;101547.00;;;21.89;87.55
63090;BME280;49174;43.198;27.824;2023-05-25T09:01:17;101552.03;;;21.75;90.48
63090;BME280;49174;43.198;27.824;2023-05-25T09:03:44;101549.72;;;21.67;91.75
63090;BME280;49174;43.198;27.824;2023-05-25T09:06:11;101540.88;;;21.64;93.20
63090;BME280;49174;43.198;27.824;2023-05-25T09:08:37;101541.56;;;21.55;90.75
63090;BME280;49174;43.198;27.824;2023-05-25T09:11:05;101549.50;;;21.23;93.04
63090;BME280;49174;43.198;27.824;2023-05-25T09:13:31;101554.13;;;20.88;93.69
63090;BME280;49174;43.198;27.824;2023-05-25T09:15:57;101562.56;;;20.98;97.45
63090;BME280;49174;43.198;27.824;2023-05-25T09:18:23;101571.41;;;21.17;98.45
63090;BME280;49174;43.198;27.824;2023-05-25T09:20:49;101565.16;;;21.22;94.95
63090;BME280;49174;43.198;27.824;2023-05-25T09:23:14;101565.00;;;21.12;96.62
63090;BME280;49174;43.198;27.824;2023-05-25T09:25:40;101569.09;;;21.26;99.84
63090;BME280;49174;43.198;27.824;2023-05-25T09:28:09;101562.19;;;21.74;99.00
63090;BME280;49174;43.198;27.824;2023-05-25T09:30:35;101563.81;;;21.92;94.62
63090;BME280;49174;43.198;27.824;2023-05-25T09:33:14;101568.16;;;21.88;93.57
63090;BME280;49174;43.198;27.824;2023-05-25T09:35:43;101564.31;;;21.89;93.20
63090;BME280;49174;43.198;27.824;2023-05-25T09:38:12;101556.13;;;21.72;94.06
63090;BME280;49174;43.198;27.824;2023-05-25T09:40:38;101555.28;;;21.72;91.35
63090;BME280;49174;43.198;27.824;2023-05-25T09:43:03;101557.34;;;21.64;92.00
63090;BME280;49174;43.198;27.824;2023-05-25T09:45:29;101571.19;;;21.53;91.75
63090;BME280;49174;43.198;27.824;2023-05-25T09:47:57;101568.34;;;21.48;95.00
63090;BME280;49174;43.198;27.824;2023-05-25T09:50:23;101563.28;;;21.39;91.49
63090;BME280;49174;43.198;27.824;2023-05-25T09:52:48;101557.09;;;21.32;93.71
63090;BME280;49174;43.198;27.824;2023-05-25T09:55:16;101560.59;;;21.28;94.89
63090;BME280;49174;43.198;27.824;2023-05-25T09:57:42;101555.50;;;21.19;94.93
63090;BME280;49174;43.198;27.824;2023-05-25T10:00:08;101555.66;;;21.13;95.80
63090;BME280;49174;43.198;27.824;2023-05-25T10:02:35;101558.41;;;21.13;97.55
63090;BME280;49174;43.198;27.824;2023-05-25T10:05:01;101547.19;;;21.14;98.63
63090;BME280;49174;43.198;27.824;2023-05-25T10:07:26;101550.28;;;21.18;98.50
63090;BME280;49174;43.198;27.824;2023-05-25T10:09:53;101549.28;;;21.24;98.92
63090;BME280;49174;43.198;27.824;2023-05-25T10:12:21;101551.34;;;21.34;98.25
63090;BME280;49174;43.198;27.824;2023-05-25T10:14:49;101558.88;;;21.38;98.48
63090;BME280;49174;43.198;27.824;2023-05-25T10:17:20;101558.28;;;21.53;99.33
63090;BME280;49174;43.198;27.824;2023-05-25T10:19:59;101563.28;;;21.73;97.26
63090;BME280;49174;43.198;27.824;2023-05-25T10:22:31;101566.28;;;22.11;97.16
63090;BME280;49174;43.198;27.824;2023-05-25T10:25:16;101564.34;;;22.50;97.15
63090;BME280;49174;43.198;27.824;2023-05-25T10:27:58;101559.94;;;22.98;95.37
63090;BME280;49174;43.198;27.824;2023-05-25T10:30:25;101568.00;;;23.37;86.83
63090;BME280;49174;43.198;27.824;2023-05-25T10:32:53;101561.06;;;23.67;86.12
63090;BME280;49174;43.198;27.824;2023-05-25T10:35:19;101559.13;;;23.99;90.23
63090;BME280;49174;43.198;27.824;2023-05-25T10:37:45;101558.09;;;24.21;84.63
63090;BME280;49174;43.198;27.824;2023-05-25T10:40:12;101552.66;;;24.36;80.70
63090;BME280;49174;43.198;27.824;2023-05-25T10:42:40;101545.03;;;24.43;81.73
63090;BME280;49174;43.198;27.824;2023-05-25T10:45:07;101553.56;;;24.47;79.56
63090;BME280;49174;43.198;27.824;2023-05-25T10:47:36;101549.44;;;24.49;82.06
63090;BME280;49174;43.198;27.824;2023-05-25T10:50:03;101548.94;;;24.63;78.87
63090;BME280;49174;43.198;27.824;2023-05-25T10:52:29;101558.28;;;24.57;75.02
63090;BME280;49174;43.198;27.824;2023-05-25T10:54:59;101554.13;;;24.44;76.50
63090;BME280;49174;43.198;27.824;2023-05-25T10:57:31;101547.69;;;24.33;76.44
63090;BME280;49174;43.198;27.824;2023-05-25T11:00:02;101553.44;;;24.26;77.84
63090;BME280;49174;43.198;27.824;2023-05-25T11:02:47;101557.25;;;24.15;75.78
63090;BME280;49174;43.198;27.824;2023-05-25T11:07:56;101533.19;;;24.53;75.31
63090;BME280;49174;43.198;27.824;2023-05-25T11:18:47;101527.78;;;25.45;72.01
63090;BME280;49174;43.198;27.824;2023-05-25T11:21:40;101525.56;;;25.52;68.75
63090;BME280;49174;43.198;27.824;2023-05-25T11:24:14;101528.88;;;25.34;65.04
63090;BME280;49174;43.198;27.824;2023-05-25T11:26:54;101533.03;;;25.31;66.50
63090;BME280;49174;43.198;27.824;2023-05-25T11:29:20;101521.72;;;25.33;65.91
63090;BME280;49174;43.198;27.824;2023-05-25T11:31:51;101522.53;;;25.33;67.20
63090;BME280;49174;43.198;27.824;2023-05-25T11:34:20;101518.09;;;25.37;64.61
63090;BME280;49174;43.198;27.824;2023-05-25T11:36:46;101512.03;;;25.20;63.46
63090;BME280;49174;43.198;27.824;2023-05-25T11:39:11;101510.91;;;25.06;63.74
63090;BME280;49174;43.198;27.824;2023-05-25T11:41:39;101514.19;;;24.87;62.51
63090;BME280;49174;43.198;27.824;2023-05-25T11:44:10;101510.59;;;24.71;62.03
63090;BME280;49174;43.198;27.824;2023-05-25T11:46:40;101509.75;;;24.61;66.70
63090;BME280;49174;43.198;27.824;2023-05-25T11:49:07;101507.53;;;24.52;68.46
63090;BME280;49174;43.198;27.824;2023-05-25T11:51:34;101506.63;;;24.42;69.62
63090;BME280;49174;43.198;27.824;2023-05-25T11:54:00;101504.97;;;24.36;70.61
63090;BME280;49174;43.198;27.824;2023-05-25T11:56:30;101494.44;;;24.27;72.55
63090;BME280;49174;43.198;27.824;2023-05-25T11:58:56;101498.00;;;24.23;74.18
63090;BME280;49174;43.198;27.824;2023-05-25T12:01:23;101494.69;;;24.21;76.10
63090;BME280;49174;43.198;27.824;2023-05-25T12:03:50;101492.50;;;24.23;77.11
63090;BME280;49174;43.198;27.824;2023-05-25T12:08:51;101489.22;;;24.31;78.99
63090;BME280;49174;43.198;27.824;2023-05-25T12:11:18;101485.34;;;24.32;74.67
63090;BME280;49174;43.198;27.824;2023-05-25T12:13:52;101476.56;;;24.35;75.46
63090;BME280;49174;43.198;27.824;2023-05-25T12:16:18;101483.47;;;24.38;73.66
63090;BME280;49174;43.198;27.824;2023-05-25T12:18:44;101481.25;;;24.40;71.28
63090;BME280;49174;43.198;27.824;2023-05-25T12:21:09;101481.84;;;24.47;69.77
63090;BME280;49174;43.198;27.824;2023-05-25T12:23:35;101478.28;;;24.46;73.32
63090;BME280;49174;43.198;27.824;2023-05-25T12:26:09;101474.69;;;24.51;74.06
63090;BME280;49174;43.198;27.824;2023-05-25T12:28:38;101482.72;;;24.58;75.18
63090;BME280;49174;43.198;27.824;2023-05-25T12:31:23;101487.38;;;24.47;72.37
63090;BME280;49174;43.198;27.824;2023-05-25T12:34:16;101483.72;;;24.36;72.58
63090;BME280;49174;43.198;27.824;2023-05-25T12:36:50;101484.25;;;24.33;72.80
63090;BME280;49174;43.198;27.824;2023-05-25T12:39:17;101495.28;;;24.33;73.98
63090;BME280;49174;43.198;27.824;2023-05-25T12:41:49;101497.47;;;24.26;72.85
63090;BME280;49174;43.198;27.824;2023-05-25T12:46:41;101511.78;;;24.18;75.36
63090;BME280;49174;43.198;27.824;2023-05-25T12:49:29;101527.22;;;24.14;73.95
63090;BME280;49174;43.198;27.824;2023-05-25T12:51:56;101533.25;;;24.11;74.36